Time;durP1;ratioP1;P1;durP2;ratioP2;P2;SDS_P1;SDS_P2;PMS_P1;PMS_P2;Temp;Humidity;BMP_temperature;BMP_pressure;BME280_temperature;BME280_humidity;BME280_pressure;Samples;Min_cycle;Max_cycle;Signal;HPM_P1;HPM_P2
2023/06/12 00:00:45;;;;;;;9.00;5.20;;;;;;;;;;5051320;28;20063;-76
2023/06/12 00:03:12;;;;;;;5.45;4.53;;;;;;;;;;5063496;28;20099;-75
2023/06/12 00:05:41;;;;;;;7.22;5.18;;;;;;;;;;5055145;28;20025;-76
2023/06/12 00:08:08;;;;;;;7.10;4.88;;;;;;;;;;5036063;28;20032;-76
2023/06/12 00:10:34;;;;;;;6.90;4.68;;;;;;;;;;5053111;28;20013;-76
2023/06/12 00:13:00;;;;;;;8.10;4.78;;;;;;;;;;5062622;28;20020;-75
2023/06/12 00:15:26;;;;;;;8.93;4.75;;;;;;;;;;5057384;28;20021;-75
2023/06/12 00:17:52;;;;;;;5.05;4.43;;;;;;;;;;5070049;28;20371;-75
2023/06/12 00:20:18;;;;;;;8.90;4.85;;;;;;;;;;5060507;28;20020;-75
2023/06/12 00:22:45;;;;;;;7.50;4.80;;;;;;;;;;5066351;28;20025;-75
2023/06/12 00:25:11;;;;;;;6.85;4.78;;;;;;;;;;5067521;28;20510;-75
2023/06/12 00:27:37;;;;;;;6.80;5.25;;;;;;;;;;5058779;28;20025;-75
2023/06/12 00:30:03;;;;;;;5.40;4.20;;;;;;;;;;5071577;28;20013;-75
2023/06/12 00:32:29;;;;;;;6.63;4.60;;;;;;;;;;5054730;28;20047;-75
2023/06/12 00:34:56;;;;;;;5.25;4.28;;;;;;;;;;5065275;28;20056;-76
2023/06/12 00:37:24;;;;;;;5.95;4.35;;;;;;;;;;5060653;28;20100;-75
2023/06/12 00:39:51;;;;;;;6.85;5.05;;;;;;;;;;5071434;28;20111;-76
2023/06/12 00:42:17;;;;;;;7.13;4.40;;;;;;;;;;5059532;28;20028;-75
2023/06/12 00:44:43;;;;;;;6.72;4.90;;;;;;;;;;5066026;28;20032;-76
2023/06/12 00:47:10;;;;;;;6.63;4.57;;;;;;;;;;5054345;28;20406;-75
2023/06/12 00:49:37;;;;;;;7.72;4.93;;;;;;;;;;5070721;28;20100;-76
2023/06/12 00:52:03;;;;;;;8.65;5.57;;;;;;;;;;5058029;28;20021;-76
2023/06/12 00:54:30;;;;;;;8.23;5.05;;;;;;;;;;5067843;28;20021;-76
2023/06/12 00:56:57;;;;;;;6.63;4.82;;;;;;;;;;5064618;28;20482;-76
2023/06/12 00:59:23;;;;;;;8.82;5.22;;;;;;;;;;5060184;28;20070;-76
2023/06/12 01:01:50;;;;;;;5.22;4.63;;;;;;;;;;5056740;28;20104;-75
2023/06/12 01:04:16;;;;;;;8.48;5.60;;;;;;;;;;5069304;28;20052;-74
2023/06/12 01:06:51;;;;;;;8.57;5.53;;;;;;;;;;5062830;28;20020;-75
2023/06/12 01:09:32;;;;;;;7.78;5.20;;;;;;;;;;5062245;28;20031;-75
2023/06/12 01:12:01;;;;;;;8.50;5.72;;;;;;;;;;5066567;28;20112;-76
2023/06/12 01:14:27;;;;;;;6.47;5.00;;;;;;;;;;5067558;28;20411;-75
2023/06/12 01:16:58;;;;;;;6.47;5.60;;;;;;;;;;5062141;28;20067;-75
2023/06/12 01:19:24;;;;;;;9.48;5.90;;;;;;;;;;5056372;28;20052;-75
2023/06/12 01:21:57;;;;;;;6.78;5.72;;;;;;;;;;5061482;28;20032;-76
2023/06/12 01:24:35;;;;;;;6.43;5.10;;;;;;;;;;5062124;28;20056;-76
2023/06/12 01:27:05;;;;;;;9.70;5.55;;;;;;;;;;5061719;28;20057;-76
2023/06/12 01:29:37;;;;;;;9.77;6.68;;;;;;;;;;5055972;28;20052;-76
2023/06/12 01:32:05;;;;;;;9.82;6.43;;;;;;;;;;5057503;28;20051;-76
2023/06/12 01:34:37;;;;;;;9.40;6.22;;;;;;;;;;5063192;28;20490;-76
2023/06/12 01:37:13;;;;;;;9.20;6.28;;;;;;;;;;5064474;28;20441;-76
2023/06/12 01:39:41;;;;;;;8.65;6.20;;;;;;;;;;5065024;28;20031;-76
2023/06/12 01:42:07;;;;;;;9.07;6.32;;;;;;;;;;5053413;28;20033;-76
2023/06/12 01:44:33;;;;;;;9.45;6.15;;;;;;;;;;5062616;28;20029;-76
2023/06/12 01:47:00;;;;;;;9.98;6.05;;;;;;;;;;5053488;28;20439;-76
2023/06/12 01:49:26;;;;;;;6.85;5.97;;;;;;;;;;5056832;28;20013;-76
2023/06/12 01:51:52;;;;;;;8.32;6.28;;;;;;;;;;5065179;28;20020;-76
2023/06/12 01:54:18;;;;;;;7.78;6.30;;;;;;;;;;5068146;28;20024;-76
2023/06/12 01:56:44;;;;;;;9.18;6.00;;;;;;;;;;5061326;28;20036;-75
2023/06/12 01:59:11;;;;;;;8.00;5.72;;;;;;;;;;5064197;28;20043;-75
2023/06/12 02:01:38;;;;;;;7.80;6.38;;;;;;;;;;5057086;28;20029;-75
2023/06/12 02:04:04;;;;;;;9.45;6.30;;;;;;;;;;5064724;28;20531;-75
2023/06/12 02:06:31;;;;;;;8.82;6.15;;;;;;;;;;5065208;28;20037;-76
2023/06/12 02:08:57;;;;;;;10.35;6.68;;;;;;;;;;5064019;28;20386;-76
2023/06/12 02:11:23;;;;;;;7.88;6.45;;;;;;;;;;5061236;28;20013;-76
2023/06/12 02:13:49;;;;;;;10.57;6.88;;;;;;;;;;5071414;28;20074;-76
2023/06/12 02:16:20;;;;;;;7.60;6.07;;;;;;;;;;5058720;28;20103;-76
2023/06/12 02:18:46;;;;;;;9.05;6.32;;;;;;;;;;5057648;28;20020;-76
2023/06/12 02:21:12;;;;;;;7.47;6.28;;;;;;;;;;5061526;28;20032;-75
2023/06/12 02:23:38;;;;;;;9.07;6.78;;;;;;;;;;5061376;28;20033;-76
2023/06/12 02:26:04;;;;;;;8.20;6.65;;;;;;;;;;5064622;28;20110;-76
2023/06/12 02:28:31;;;;;;;7.30;6.10;;;;;;;;;;5058816;28;20024;-76
2023/06/12 02:30:57;;;;;;;8.65;6.70;;;;;;;;;;5059115;28;20590;-76
2023/06/12 02:33:25;;;;;;;13.02;6.88;;;;;;;;;;5069699;28;20506;-75
2023/06/12 02:35:51;;;;;;;7.80;6.55;;;;;;;;;;5061827;28;20643;-75
2023/06/12 02:38:17;;;;;;;8.75;6.60;;;;;;;;;;5059562;28;20021;-75
2023/06/12 02:40:43;;;;;;;11.10;6.20;;;;;;;;;;5056129;28;20043;-76
2023/06/12 02:43:10;;;;;;;6.60;5.75;;;;;;;;;;5058680;28;20029;-76
2023/06/12 02:45:36;;;;;;;9.60;6.78;;;;;;;;;;5065024;28;20494;-76
2023/06/12 02:48:02;;;;;;;10.02;5.88;;;;;;;;;;5070090;28;20040;-76
2023/06/12 02:50:28;;;;;;;11.45;6.47;;;;;;;;;;5066375;28;20016;-75
2023/06/12 02:52:54;;;;;;;6.90;6.15;;;;;;;;;;5055246;28;20487;-76
2023/06/12 02:55:20;;;;;;;11.60;7.28;;;;;;;;;;5052469;28;20026;-76
2023/06/12 02:57:46;;;;;;;9.88;7.15;;;;;;;;;;5052975;28;20028;-76
2023/06/12 03:00:14;;;;;;;9.07;6.45;;;;;;;;;;5052768;28;20387;-76
2023/06/12 03:02:42;;;;;;;11.60;7.32;;;;;;;;;;5059717;28;20536;-76
2023/06/12 03:05:12;;;;;;;11.40;6.93;;;;;;;;;;5066818;28;20368;-75
2023/06/12 03:07:40;;;;;;;13.50;8.32;;;;;;;;;;5068023;28;20020;-75
2023/06/12 03:10:06;;;;;;;10.57;7.68;;;;;;;;;;5056340;28;20056;-75
2023/06/12 03:12:32;;;;;;;46.13;32.28;;;;;;;;;;5055174;28;20025;-75
2023/06/12 03:14:59;;;;;;;52.53;34.03;;;;;;;;;;5053166;28;20071;-76
2023/06/12 03:17:25;;;;;;;26.55;17.83;;;;;;;;;;5052907;28;20025;-76
2023/06/12 03:19:51;;;;;;;40.85;29.30;;;;;;;;;;5052961;28;20025;-75
2023/06/12 03:22:17;;;;;;;37.65;25.90;;;;;;;;;;5066923;28;20491;-76
2023/06/12 03:24:43;;;;;;;22.90;15.18;;;;;;;;;;5062871;28;20033;-76
2023/06/12 03:27:10;;;;;;;21.92;14.43;;;;;;;;;;5063649;28;20039;-76
2023/06/12 03:29:36;;;;;;;14.07;6.88;;;;;;;;;;5056002;28;20495;-75
2023/06/12 03:32:02;;;;;;;8.07;6.22;;;;;;;;;;5062456;28;20020;-75
2023/06/12 03:34:28;;;;;;;7.85;6.40;;;;;;;;;;5061561;28;20107;-76
2023/06/12 03:36:54;;;;;;;10.65;6.05;;;;;;;;;;5059615;28;20164;-75
2023/06/12 03:39:20;;;;;;;9.20;6.22;;;;;;;;;;5057284;28;20056;-75
2023/06/12 03:41:56;;;;;;;9.55;5.43;;;;;;;;;;5068373;28;20125;-76
2023/06/12 03:44:22;;;;;;;7.75;5.35;;;;;;;;;;5057005;28;20073;-75
2023/06/12 03:46:48;;;;;;;7.82;4.90;;;;;;;;;;5062108;28;20096;-75
2023/06/12 03:49:14;;;;;;;7.97;5.43;;;;;;;;;;5062637;28;20027;-76
2023/06/12 03:51:41;;;;;;;11.18;5.10;;;;;;;;;;5054394;28;20371;-75
2023/06/12 03:54:07;;;;;;;6.95;4.72;;;;;;;;;;5038740;28;20060;-76
2023/06/12 03:56:33;;;;;;;6.97;5.13;;;;;;;;;;5062830;28;20029;-76
2023/06/12 03:59:03;;;;;;;8.30;5.07;;;;;;;;;;5061893;28;20025;-76
2023/06/12 04:01:29;;;;;;;12.45;5.30;;;;;;;;;;5056296;28;20025;-75
2023/06/12 04:03:55;;;;;;;11.43;5.50;;;;;;;;;;5067598;28;20032;-76
2023/06/12 04:06:22;;;;;;;8.73;5.63;;;;;;;;;;5050898;28;20021;-77
2023/06/12 04:08:48;;;;;;;8.13;5.15;;;;;;;;;;5060168;28;20067;-77
2023/06/12 04:11:14;;;;;;;7.20;4.72;;;;;;;;;;5060491;28;20025;-77
2023/06/12 04:13:41;;;;;;;6.53;4.65;;;;;;;;;;5065472;28;20034;-77
2023/06/12 04:16:07;;;;;;;9.77;5.40;;;;;;;;;;5039688;28;20018;-77
2023/06/12 04:18:37;;;;;;;9.50;5.40;;;;;;;;;;5052087;28;20029;-76
2023/06/12 04:21:03;;;;;;;6.38;4.50;;;;;;;;;;5054843;28;20070;-76
2023/06/12 04:23:31;;;;;;;7.57;4.93;;;;;;;;;;5055066;28;20017;-76
2023/06/12 04:26:05;;;;;;;6.95;4.78;;;;;;;;;;5054905;28;20035;-77
2023/06/12 04:28:32;;;;;;;7.80;4.93;;;;;;;;;;5053552;28;20036;-76
2023/06/12 04:30:59;;;;;;;5.35;4.82;;;;;;;;;;5054533;28;20048;-76
2023/06/12 04:33:29;;;;;;;10.45;4.68;;;;;;;;;;5055634;28;20048;-76
2023/06/12 04:35:56;;;;;;;8.23;5.30;;;;;;;;;;5051214;28;20032;-76
2023/06/12 04:38:23;;;;;;;7.90;5.43;;;;;;;;;;5056353;28;20035;-77
2023/06/12 04:40:51;;;;;;;8.32;5.10;;;;;;;;;;5061759;28;20028;-76
2023/06/12 04:43:19;;;;;;;8.70;5.40;;;;;;;;;;5063499;28;20082;-76
2023/06/12 04:45:46;;;;;;;8.07;5.50;;;;;;;;;;5069964;28;20024;-76
2023/06/12 04:48:13;;;;;;;10.85;4.72;;;;;;;;;;5053078;28;20025;-77
2023/06/12 04:50:39;;;;;;;8.48;5.00;;;;;;;;;;5051621;28;20490;-76
2023/06/12 04:53:06;;;;;;;15.13;5.13;;;;;;;;;;5051377;28;20021;-76
2023/06/12 04:55:32;;;;;;;8.30;4.75;;;;;;;;;;5068578;28;20147;-77
2023/06/12 04:57:59;;;;;;;7.78;4.90;;;28.70;33.10;;;;;;5052960;28;20086;-77
2023/06/12 05:00:25;;;;;;;8.23;5.32;;;28.40;33.10;;;;;;5064585;28;20020;-77
2023/06/12 05:02:55;;;;;;;5.10;4.60;;;27.70;34.40;;;;;;5061340;28;20020;-76
2023/06/12 05:05:21;;;;;;;9.35;4.90;;;27.30;35.20;;;;;;5060055;28;20048;-77
2023/06/12 05:07:47;;;;;;;9.07;4.97;;;28.50;34.00;;;;;;5054809;28;20598;-77
2023/06/12 05:10:15;;;;;;;8.35;5.35;;;29.10;32.50;;;;;;5069609;28;20016;-77
2023/06/12 05:12:40;;;;;;;5.75;4.88;;;29.50;32.30;;;;;;5055894;28;20028;-76
2023/06/12 05:15:07;;;;;;;6.75;5.53;;;;;;;;;;5051658;28;20441;-76
2023/06/12 05:17:33;;;;;;;7.43;5.10;;;27.50;34.80;;;;;;5064819;28;20085;-76
2023/06/12 05:19:58;;;;;;;10.43;5.03;;;28.00;34.30;;;;;;5071146;28;20040;-76
2023/06/12 05:22:24;;;;;;;5.60;5.07;;;27.70;34.20;;;;;;5053785;28;20029;-77
2023/06/12 05:24:50;;;;;;;8.93;5.18;;;28.40;33.70;;;;;;5062930;28;20036;-77
2023/06/12 05:27:16;;;;;;;9.68;4.32;;;29.20;32.10;;;;;;5068988;28;20475;-77
2023/06/12 05:29:41;;;;;;;5.70;3.95;;;30.00;30.70;;;;;;5072792;28;20533;-77
2023/06/12 05:32:07;;;;;;;7.68;3.58;;;29.90;29.40;;;;;;5061275;28;20462;-77
2023/06/12 05:34:33;;;;;;;4.07;3.22;;;31.20;27.60;;;;;;5066121;28;20101;-77
2023/06/12 05:36:59;;;;;;;7.28;3.88;;;30.80;26.60;;;;;;5063356;28;20049;-75
2023/06/12 05:39:24;;;;;;;14.68;3.70;;;29.10;28.90;;;;;;5067712;28;20025;-76
2023/06/12 05:41:50;;;;;;;7.05;3.60;;;30.00;28.70;;;;;;5056638;28;20033;-76
2023/06/12 05:44:16;;;;;;;9.43;3.60;;;29.50;29.30;;;;;;5068640;28;20021;-76
2023/06/12 05:46:41;;;;;;;5.32;4.05;;;28.80;30.20;;;;;;5062845;28;20083;-78
2023/06/12 05:49:08;;;;;;;4.30;3.30;;;;;;;;;;5062326;28;20555;-78
2023/06/12 05:51:33;;;;;;;8.98;3.90;;;30.90;29.30;;;;;;5069188;28;20025;-78
2023/06/12 05:53:59;;;;;;;7.55;3.60;;;31.30;28.20;;;;;;5056859;28;20105;-78
2023/06/12 05:56:25;;;;;;;5.97;3.38;;;31.50;27.80;;;;;;5068179;28;20139;-78
2023/06/12 05:58:50;;;;;;;7.70;3.95;;;31.00;28.50;;;;;;5067780;28;20445;-80
2023/06/12 06:01:21;;;;;;;12.38;4.03;;;30.90;28.90;;;;;;5067123;28;20028;-80
2023/06/12 06:03:48;;;;;;;9.85;4.07;;;30.40;29.60;;;;;;5073992;28;20180;-69
2023/06/12 06:06:15;;;;;;;5.35;3.80;;;;;;;;;;5057469;28;20021;-68
2023/06/12 06:08:41;;;;;;;6.13;3.55;;;28.20;33.30;;;;;;5064407;28;20049;-69
2023/06/12 06:11:07;;;;;;;100.43;72.68;;;28.30;32.90;;;;;;5064739;28;20017;-69
2023/06/12 06:13:32;;;;;;;47.85;33.88;;;28.40;32.30;;;;;;5057322;28;20044;-70
2023/06/12 06:15:58;;;;;;;49.75;35.60;;;30.00;30.50;;;;;;5069270;28;20047;-69
2023/06/12 06:18:24;;;;;;;9.50;6.40;;;30.40;28.90;;;;;;5058221;28;20425;-69
2023/06/12 06:20:49;;;;;;;26.92;21.08;;;30.60;28.40;;;;;;5063183;28;20024;-68
2023/06/12 06:23:15;;;;;;;8.65;3.83;;;29.90;29.40;;;;;;5065425;28;20031;-68
2023/06/12 06:25:41;;;;;;;8.55;3.65;;;29.90;27.60;;;;;;5056123;28;20086;-69
2023/06/12 06:28:07;;;;;;;23.15;17.15;;;;;;;;;;5068595;28;20029;-68
2023/06/12 06:30:33;;;;;;;9.88;4.15;;;28.60;30.20;;;;;;5059810;28;20051;-69
2023/06/12 06:32:58;;;;;;;5.05;3.50;;;29.60;28.90;;;;;;5061552;28;20052;-68
2023/06/12 06:35:25;;;;;;;6.30;3.40;;;;;;;;;;5071456;28;20039;-79
2023/06/12 06:37:50;;;;;;;8.45;3.15;;;27.90;29.60;;;;;;5068958;28;20089;-79
2023/06/12 06:40:16;;;;;;;7.90;3.78;;;28.50;30.60;;;;;;5087394;28;20048;-80
2023/06/12 06:42:43;;;;;;;6.30;3.38;;;30.30;27.70;;;;;;5082068;28;20036;-80
2023/06/12 06:45:09;;;;;;;7.75;3.60;;;30.50;27.00;;;;;;5078804;28;20055;-80
2023/06/12 06:47:36;;;;;;;6.47;3.30;;;31.30;27.80;;;;;;5079569;28;20103;-80
2023/06/12 06:50:02;;;;;;;5.05;3.53;;;32.30;26.20;;;;;;5065872;28;20013;-80
2023/06/12 06:52:27;;;;;;;8.00;3.03;;;32.90;24.10;;;;;;5074927;28;20028;-80
2023/06/12 06:54:53;;;;;;;8.25;3.25;;;;;;;;;;5072329;28;20117;-81
2023/06/12 06:57:21;;;;;;;4.72;3.10;;;;;;;;;;5067652;28;20027;-81
2023/06/12 06:59:46;;;;;;;4.22;3.58;;;34.00;23.40;;;;;;5077257;28;20020;-77
2023/06/12 07:02:19;;;;;;;5.75;2.72;;;34.50;23.40;;;;;;5061676;28;20046;-82
2023/06/12 07:04:45;;;;;;;12.15;3.60;;;35.40;22.90;;;;;;5075399;28;20433;-81
2023/06/12 07:07:10;;;;;;;7.18;4.97;;;34.00;23.60;;;;;;5076003;28;20055;-81
2023/06/12 07:09:36;;;;;;;11.05;4.85;;;33.50;24.80;;;;;;5071361;28;20143;-82
2023/06/12 07:12:02;;;;;;;5.05;3.45;;;35.10;24.10;;;;;;5081327;28;20492;-80
2023/06/12 07:14:27;;;;;;;14.75;6.50;;;34.90;23.30;;;;;;5073141;28;20043;-82
2023/06/12 07:16:53;;;;;;;10.90;4.28;;;34.00;24.40;;;;;;5070950;28;20104;-82
2023/06/12 07:19:18;;;;;;;5.32;3.25;;;32.90;25.90;;;;;;5074880;28;20428;-81
2023/06/12 07:21:44;;;;;;;6.15;3.65;;;32.10;27.20;;;;;;5063581;28;20028;-81
2023/06/12 07:24:12;;;;;;;8.45;4.68;;;33.50;25.70;;;;;;5077714;28;20053;-82
2023/06/12 07:26:37;;;;;;;5.13;3.58;;;34.90;25.30;;;;;;5067483;28;20032;-80
2023/06/12 07:29:03;;;;;;;8.38;3.40;;;35.60;24.40;;;;;;5064710;28;20112;-78
2023/06/12 07:31:29;;;;;;;8.90;3.40;;;36.20;23.70;;;;;;5066168;28;20020;-79
2023/06/12 07:33:55;;;;;;;7.43;3.42;;;36.90;22.90;;;;;;5052714;28;20056;-78
2023/06/12 07:36:20;;;;;;;9.02;3.25;;;37.00;21.70;;;;;;5044897;28;20017;-78
2023/06/12 07:38:46;;;;;;;6.68;3.50;;;35.10;22.60;;;;;;5064186;28;20467;-77
2023/06/12 07:41:12;;;;;;;5.00;2.97;;;34.70;23.10;;;;;;5065206;28;20024;-79
2023/06/12 07:43:37;;;;;;;4.40;2.92;;;35.20;23.10;;;;;;5062214;28;20486;-79
2023/06/12 07:46:04;;;;;;;4.38;2.92;;;35.10;23.60;;;;;;5075434;28;20045;-78
2023/06/12 07:48:30;;;;;;;3.40;3.03;;;34.90;22.90;;;;;;5062279;28;20019;-78
2023/06/12 07:50:56;;;;;;;8.15;3.55;;;;;;;;;;5063900;28;20025;-77
2023/06/12 07:53:22;;;;;;;3.80;3.03;;;;;;;;;;5068254;28;20479;-77
2023/06/12 07:55:52;;;;;;;5.70;3.22;;;;;;;;;;5057884;28;20032;-78
2023/06/12 07:58:18;;;;;;;5.03;3.45;;;;;;;;;;5067396;28;20021;-77
2023/06/12 08:00:44;;;;;;;6.28;3.33;;;32.40;24.00;;;;;;5062581;28;20091;-76
2023/06/12 08:03:10;;;;;;;4.85;3.40;;;32.20;24.10;;;;;;5059184;28;20028;-76
2023/06/12 08:05:37;;;;;;;5.38;3.33;;;32.50;25.10;;;;;;5071101;28;20465;-79
2023/06/12 08:08:03;;;;;;;5.57;2.97;;;33.90;23.40;;;;;;5052022;28;20114;-78
2023/06/12 08:10:29;;;;;;;4.38;3.08;;;;;;;;;;5050113;28;20546;-77
2023/06/12 08:12:54;;;;;;;8.70;3.67;;;34.50;21.30;;;;;;5050781;28;20025;-76
2023/06/12 08:15:21;;;;;;;10.25;3.35;;;33.10;23.30;;;;;;5050823;28;20029;-76
2023/06/12 08:17:47;;;;;;;7.88;3.65;;;30.40;25.80;;;;;;5049653;28;20021;-76
2023/06/12 08:20:15;;;;;;;6.25;3.08;;;30.10;25.50;;;;;;5051175;28;20442;-76
2023/06/12 08:22:42;;;;;;;4.25;3.53;;;30.40;25.70;;;;;;5051122;28;20056;-77
2023/06/12 08:25:08;;;;;;;4.45;3.50;;;29.90;26.50;;;;;;5051008;28;20116;-76
2023/06/12 08:27:34;;;;;;;4.65;3.15;;;29.40;26.20;;;;;;5050859;28;20071;-76
2023/06/12 08:30:01;;;;;;;6.13;3.55;;;28.70;27.10;;;;;;5050645;28;20021;-76
2023/06/12 08:32:27;;;;;;;8.00;3.28;;;;;;;;;;5050825;28;20025;-77
2023/06/12 08:34:53;;;;;;;10.98;3.92;;;;;;;;;;5049533;28;20028;-77
2023/06/12 08:37:19;;;;;;;4.80;3.25;;;;;;;;;;5052620;28;20025;-77
2023/06/12 08:39:46;;;;;;;7.82;3.65;;;;;;;;;;5055212;28;20100;-77
2023/06/12 08:42:15;;;;;;;5.53;3.42;;;28.80;25.30;;;;;;5054809;28;20056;-77
2023/06/12 08:44:47;;;;;;;3.35;3.05;;;27.90;26.50;;;;;;5054624;28;20441;-77
2023/06/12 08:47:16;;;;;;;8.98;3.60;;;27.50;26.50;;;;;;5054475;28;20072;-77
2023/06/12 08:49:42;;;;;;;4.05;3.15;;;27.50;26.00;;;;;;5054757;28;20075;-76
2023/06/12 08:52:10;;;;;;;5.13;3.10;;;28.50;24.30;;;;;;5054790;28;20029;-77
2023/06/12 08:54:40;;;;;;;5.20;2.97;;;28.50;24.90;;;;;;5053094;28;20033;-77
2023/06/12 08:57:08;;;;;;;3.15;2.83;;;;;;;;;;5054554;28;20045;-76
2023/06/12 08:59:34;;;;;;;6.93;2.80;;;;;;;;;;5054383;28;20029;-76
2023/06/12 09:02:00;;;;;;;5.57;3.05;;;;;;;;;;5054316;28;20025;-76
2023/06/12 09:04:28;;;;;;;4.65;3.13;;;;;;;;;;5054252;28;20029;-76
2023/06/12 09:07:01;;;;;;;4.28;2.88;;;;;;;;;;5054269;28;20032;-76
2023/06/12 09:09:40;;;;;;;3.58;3.28;;;;;;;;;;5054351;28;20029;-76
2023/06/12 09:12:08;;;;;;;5.30;2.83;;;;;;;;;;5054122;28;20024;-77
2023/06/12 09:14:35;;;;;;;4.55;2.90;;;;;;;;;;5054156;28;20025;-77
2023/06/12 09:17:04;;;;;;;6.30;3.00;;;;;;;;;;5052683;28;20494;-77
2023/06/12 09:19:37;;;;;;;3.70;2.70;;;;;;;;;;5052068;28;20499;-77
2023/06/12 09:22:04;;;;;;;3.55;2.60;;;;;;;;;;5052415;28;20021;-77
2023/06/12 09:24:30;;;;;;;4.78;2.63;;;28.00;25.80;;;;;;5053904;28;20025;-77
2023/06/12 09:26:55;;;;;;;4.93;2.70;;;27.50;26.10;;;;;;5053693;28;20386;-76
2023/06/12 09:29:34;;;;;;;4.68;2.65;;;27.50;26.80;;;;;;5053767;28;20036;-76
2023/06/12 09:32:01;;;;;;;5.82;2.70;;;;;;;;;;5052405;28;20508;-76
2023/06/12 09:34:27;;;;;;;4.53;2.67;;;26.80;27.60;;;;;;5050347;28;20028;-77
2023/06/12 09:36:55;;;;;;;4.10;3.00;;;;;;;;;;5049914;28;20063;-77
2023/06/12 09:39:27;;;;;;;5.88;2.90;;;;;;;;;;5032803;28;20029;-75
2023/06/12 09:41:54;;;;;;;3.95;2.90;;;26.90;27.80;;;;;;5033787;28;20030;-76
2023/06/12 09:44:30;;;;;;;9.05;2.67;;;27.30;27.20;;;;;;5033725;28;20033;-76
2023/06/12 09:47:01;;;;;;;3.30;2.42;;;27.60;26.70;;;;;;5033844;28;20519;-76
2023/06/12 09:49:27;;;;;;;3.55;2.80;;;28.30;25.50;;;;;;5033276;28;20022;-76
2023/06/12 09:51:53;;;;;;;8.43;3.28;;;28.40;25.60;;;;;;5033852;28;20108;-76
2023/06/12 09:54:21;;;;;;;4.38;2.50;;;28.90;25.70;;;;;;5033700;28;20022;-76
2023/06/12 09:56:48;;;;;;;5.00;2.67;;;28.50;26.20;;;;;;5033631;28;20056;-76
2023/06/12 09:59:18;;;;;;;3.30;2.58;;;28.70;25.80;;;;;;5033419;28;20025;-76
2023/06/12 10:01:47;;;;;;;7.10;2.67;;;28.90;26.40;;;;;;5033925;28;20443;-76
2023/06/12 10:04:17;;;;;;;3.58;2.75;;;29.40;25.40;;;;;;5033510;28;20031;-77
2023/06/12 10:06:43;;;;;;;5.75;3.33;;;28.80;25.70;;;;;;5033239;28;20025;-76
2023/06/12 10:09:10;;;;;;;3.75;2.50;;;28.20;27.10;;;;;;5031947;28;20550;-75
2023/06/12 10:11:37;;;;;;;5.55;2.70;;;27.20;28.00;;;;;;5033130;28;20067;-76
2023/06/12 10:14:03;;;;;;;2.97;2.65;;;27.10;28.60;;;;;;5031808;28;20082;-77
2023/06/12 10:16:30;;;;;;;9.57;2.97;;;27.30;27.60;;;;;;5032996;28;20025;-76
2023/06/12 10:18:56;;;;;;;4.90;3.33;;;;;;;;;;5032890;28;20061;-77
2023/06/12 10:21:22;;;;;;;4.28;2.85;;;;;;;;;;5033352;28;20025;-77
2023/06/12 10:23:49;;;;;;;4.22;2.63;;;;;;;;;;5033267;28;20029;-76
2023/06/12 10:26:15;;;;;;;4.97;2.70;;;;;;;;;;5033134;28;20101;-76
2023/06/12 10:28:42;;;;;;;4.45;2.90;;;;;;;;;;5033188;28;20029;-76
2023/06/12 10:31:10;;;;;;;3.97;3.28;;;;;;;;;;5033255;28;20029;-76
2023/06/12 10:33:36;;;;;;;4.95;3.25;;;;;;;;;;5032340;28;20026;-76
2023/06/12 10:36:09;;;;;;;4.57;2.80;;;;;;;;;;5034007;28;20083;-76
2023/06/12 10:38:43;;;;;;;3.92;2.60;;;;;;;;;;5033355;28;20025;-76
2023/06/12 10:41:09;;;;;;;6.68;2.85;;;;;;;;;;5033178;28;20029;-76
2023/06/12 10:43:35;;;;;;;2.80;2.60;;;;;;;;;;5032974;28;20084;-76
2023/06/12 10:46:01;;;;;;;5.05;2.90;;;;;;;;;;5033422;28;20021;-76
2023/06/12 10:48:28;;;;;;;4.53;2.60;;;;;;;;;;5033036;28;20118;-76
2023/06/12 10:50:54;;;;;;;4.22;2.75;;;;;;;;;;5032704;28;20606;-76
2023/06/12 10:53:20;;;;;;;5.28;3.05;;;;;;;;;;5032390;28;20369;-76
2023/06/12 10:55:46;;;;;;;4.53;2.80;;;;;;;;;;5032478;28;20048;-76
2023/06/12 10:58:25;;;;;;;3.60;2.60;;;;;;;;;;5032265;28;20459;-76
2023/06/12 11:00:52;;;;;;;5.05;2.78;;;;;;;;;;5031463;28;20044;-76
2023/06/12 11:03:29;;;;;;;4.80;2.80;;;;;;;;;;5032217;28;20057;-76
2023/06/12 11:05:58;;;;;;;4.35;3.05;;;;;;;;;;5032071;28;20100;-76
2023/06/12 11:08:26;;;;;;;7.28;3.08;;;;;;;;;;5032060;28;20023;-76
2023/06/12 11:10:52;;;;;;;10.40;2.97;;;;;;;;;;5032337;28;20033;-76
2023/06/12 11:13:22;;;;;;;4.32;3.22;;;;;;;;;;5031908;28;20033;-76
2023/06/12 11:15:51;;;;;;;5.97;3.03;;;;;;;;;;5032080;28;20022;-76
2023/06/12 11:18:18;;;;;;;3.88;2.85;;;;;;;;;;5031722;28;20021;-76
2023/06/12 11:20:50;;;;;;;4.13;3.15;;;;;;;;;;5032067;28;20029;-76
2023/06/12 11:23:16;;;;;;;3.83;2.63;;;;;;;;;;5032073;28;20398;-76
2023/06/12 11:25:46;;;;;;;5.18;3.30;;;;;;;;;;5030617;28;20116;-76
2023/06/12 11:28:12;;;;;;;5.55;2.80;;;;;;;;;;5031723;28;20025;-76
2023/06/12 11:30:40;;;;;;;4.10;2.80;;;;;;;;;;5031918;28;20049;-76
2023/06/12 11:33:10;;;;;;;5.78;2.88;;;;;;;;;;5031763;28;20124;-76
2023/06/12 11:35:40;;;;;;;5.43;2.70;;;;;;;;;;5032392;28;20040;-76
2023/06/12 11:38:06;;;;;;;4.35;3.10;;;;;;;;;;5032941;28;20033;-75
2023/06/12 11:40:32;;;;;;;3.90;2.63;;;;;;;;;;5039357;28;20018;-75
2023/06/12 11:42:58;;;;;;;5.47;2.75;;;;;;;;;;5039471;28;20045;-75
2023/06/12 11:45:24;;;;;;;4.20;3.28;;;;;;;;;;5031627;28;20025;-75
2023/06/12 11:47:50;;;;;;;6.00;2.92;;;;;;;;;;5031488;28;20033;-76
2023/06/12 11:50:18;;;;;;;5.85;3.17;;;;;;;;;;5031711;28;20025;-76
2023/06/12 11:52:47;;;;;;;5.78;3.00;;;;;;;;;;5031499;28;20018;-76
2023/06/12 11:55:17;;;;;;;7.55;3.58;;;;;;;;;;5031250;28;20025;-76
2023/06/12 11:57:50;;;;;;;3.38;3.05;;;;;;;;;;5031127;28;20029;-76
2023/06/12 12:00:18;;;;;;;4.78;2.92;;;;;;;;;;5031318;28;20471;-76
2023/06/12 12:02:49;;;;;;;8.75;3.00;;;;;;;;;;5031368;28;20104;-76
2023/06/12 12:05:16;;;;;;;4.30;2.97;;;;;;;;;;5031310;28;20057;-76
2023/06/12 12:07:45;;;;;;;5.35;3.00;;;;;;;;;;5030978;28;20017;-76
2023/06/12 12:10:14;;;;;;;3.35;2.97;;;;;;;;;;5031158;28;20484;-76
2023/06/12 12:12:49;;;;;;;3.75;2.85;;;;;;;;;;5032004;28;20030;-76
2023/06/12 12:15:15;;;;;;;4.47;3.17;;;;;;;;;;5035417;28;20028;-77
2023/06/12 12:17:42;;;;;;;5.70;3.80;;;;;;;;;;5035117;28;20037;-77
2023/06/12 12:20:14;;;;;;;5.63;3.25;;;;;;;;;;5035284;28;20029;-77
2023/06/12 12:22:41;;;;;;;6.00;3.20;;;;;;;;;;5035129;28;20025;-76
2023/06/12 12:25:08;;;;;;;8.73;3.20;;;;;;;;;;5035007;28;20034;-77
2023/06/12 12:27:34;;;;;;;6.22;3.22;;;;;;;;;;5034838;28;20025;-77
2023/06/12 12:30:00;;;;;;;7.22;3.22;;;;;;;;;;5035141;28;20029;-77
2023/06/12 12:32:26;;;;;;;4.28;3.15;;;;;;;;;;5035006;28;20029;-77
2023/06/12 12:34:52;;;;;;;8.73;3.10;;;;;;;;;;5034965;28;20021;-77
2023/06/12 12:37:18;;;;;;;4.65;3.42;;;;;;;;;;5034376;28;20100;-76
2023/06/12 12:39:44;;;;;;;6.78;3.70;;;;;;;;;;5034846;28;20479;-76
2023/06/12 12:42:10;;;;;;;5.55;3.63;;;;;;;;;;5034676;28;20040;-76
2023/06/12 12:44:36;;;;;;;6.05;3.33;;;;;;;;;;5034956;28;20042;-76
2023/06/12 12:47:02;;;;;;;8.48;3.60;;;;;;;;;;5034842;28;20491;-76
2023/06/12 12:49:28;;;;;;;5.15;3.25;;;;;;;;;;5033416;28;20036;-76
2023/06/12 12:51:54;;;;;;;3.78;3.13;;;;;;;;;;5034693;28;20100;-76
2023/06/12 12:54:20;;;;;;;6.93;3.30;;;;;;;;;;5034527;28;20030;-76
2023/06/12 12:56:47;;;;;;;5.60;3.67;;;;;;;;;;5034662;28;20420;-76
2023/06/12 12:59:13;;;;;;;5.38;3.38;;;;;;;;;;5034450;28;20759;-77
2023/06/12 13:01:39;;;;;;;7.30;3.03;;;;;;;;;;5034584;28;20675;-77
2023/06/12 13:04:05;;;;;;;5.32;2.83;;;;;;;;;;5034834;28;20579;-77
2023/06/12 13:06:32;;;;;;;4.07;3.35;;;;;;;;;;5033507;28;20076;-76
2023/06/12 13:08:58;;;;;;;4.68;3.63;;;;;;;;;;5034198;28;20195;-76
2023/06/12 13:11:24;;;;;;;7.65;3.45;;;;;;;;;;5034473;28;20018;-76
2023/06/12 13:13:51;;;;;;;6.35;2.90;;;;;;;;;;5034260;28;20449;-78
2023/06/12 13:16:17;;;;;;;5.65;2.80;;;;;;;;;;5034501;28;20079;-76
2023/06/12 13:18:44;;;;;;;7.60;3.13;;;;;;;;;;5033809;28;20108;-76
2023/06/12 13:21:11;;;;;;;7.25;2.95;;;;;;;;;;5016726;28;20396;-77
2023/06/12 13:23:37;;;;;;;6.05;3.05;;;;;;;;;;5032587;28;20100;-77
2023/06/12 13:26:03;;;;;;;3.90;2.85;;;;;;;;;;5034085;28;20022;-76
2023/06/12 13:28:29;;;;;;;6.00;3.05;;;;;;;;;;5033705;28;20076;-76
2023/06/12 13:30:55;;;;;;;3.28;2.90;;;;;;;;;;5033794;28;20025;-77
2023/06/12 13:33:21;;;;;;;7.07;2.80;;;;;;;;;;5033672;28;20392;-76
2023/06/12 13:35:47;;;;;;;4.90;3.10;;;;;;;;;;5033826;28;20033;-76
2023/06/12 13:38:13;;;;;;;8.40;3.40;;;;;;;;;;5033400;28;20032;-76
2023/06/12 13:40:39;;;;;;;6.28;3.08;;;;;;;;;;5033697;28;20025;-76
2023/06/12 13:43:06;;;;;;;6.38;2.80;;;;;;;;;;5033901;28;20037;-75
2023/06/12 13:45:33;;;;;;;6.13;3.20;;;;;;;;;;5061896;22;20130;-73
2023/06/12 13:48:02;;;;;;;7.32;3.20;;;;;;;;;;5033338;28;20404;-74
2023/06/12 13:50:29;;;;;;;6.65;3.22;;;;;;;;;;5032720;28;20156;-74
2023/06/12 13:52:55;;;;;;;7.30;2.92;;;;;;;;;;5034176;28;20030;-74
2023/06/12 13:55:27;;;;;;;5.78;3.08;;;;;;;;;;5033855;28;20491;-75
2023/06/12 13:57:59;;;;;;;8.10;3.08;;;;;;;;;;5033603;28;20026;-75
2023/06/12 14:00:26;;;;;;;7.45;2.88;;;;;;;;;;5034068;28;20025;-75
2023/06/12 14:03:00;;;;;;;5.72;3.17;;;;;;;;;;5033658;28;20412;-75